createdAt,value
2016-07-04T00:00:23.327Z,1015.09
2016-07-04T00:01:23.329Z,1015.06
2016-07-04T00:02:23.336Z,1015.09
2016-07-04T00:03:23.341Z,1015.06
2016-07-04T00:04:23.346Z,1015.1
2016-07-04T00:05:23.350Z,1015.07
2016-07-04T00:06:23.352Z,1015.09
2016-07-04T00:07:23.359Z,1015.07
2016-07-04T00:08:23.364Z,1015.09
2016-07-04T00:09:23.369Z,1015.04
2016-07-04T00:10:23.374Z,1015.06
2016-07-04T00:11:23.379Z,1015.05
2016-07-04T00:12:23.384Z,1015.1
2016-07-04T00:13:23.390Z,1015.1
2016-07-04T00:14:23.396Z,1015.14
2016-07-04T00:15:23.401Z,1015.08
2016-07-04T00:16:23.405Z,1015.07
2016-07-04T00:17:23.411Z,1015.08
2016-07-04T00:18:23.467Z,1015.08
2016-07-04T00:19:23.471Z,1015.07
2016-07-04T00:20:23.424Z,1015.06
2016-07-04T00:21:23.430Z,1015.04
2016-07-04T00:22:23.435Z,1015.05
2016-07-04T00:23:23.439Z,1015.08
2016-07-04T00:24:23.444Z,1015.04
2016-07-04T00:25:23.449Z,1015.05
2016-07-04T00:26:23.455Z,1015.06
2016-07-04T00:27:23.460Z,1015.09
2016-07-04T00:28:23.465Z,1015.06
2016-07-04T00:29:23.469Z,1015.03
2016-07-04T00:30:23.475Z,1015.04
2016-07-04T00:31:23.476Z,1015.05
2016-07-04T00:32:23.489Z,1015.06
2016-07-04T00:33:23.490Z,1015.03
2016-07-04T00:34:23.493Z,1015.05
2016-07-04T00:35:23.497Z,1015.04
2016-07-04T00:36:23.501Z,1015.02
2016-07-04T00:37:23.509Z,1015.04
2016-07-04T00:38:23.512Z,1015.01
2016-07-04T00:39:23.519Z,1015.01
2016-07-04T00:40:23.525Z,1015.03
2016-07-04T00:41:23.530Z,1015.03
2016-07-04T00:42:23.533Z,1015.01
2016-07-04T00:43:23.538Z,1015.02
2016-07-04T00:44:23.550Z,1015.03
2016-07-04T00:45:23.550Z,1015.01
2016-07-04T00:46:23.554Z,1015.01
2016-07-04T00:47:23.559Z,1015.03
2016-07-04T00:48:23.563Z,1015.04
2016-07-04T00:49:23.584Z,1015.06
2016-07-04T00:50:23.572Z,1015.03
2016-07-04T00:51:23.580Z,1015
2016-07-04T00:52:23.584Z,1014.97
2016-07-04T00:53:23.589Z,1015
2016-07-04T00:54:23.593Z,1015
2016-07-04T00:55:23.601Z,1014.98
2016-07-04T00:56:23.606Z,1014.95
2016-07-04T00:57:23.611Z,1014.96
2016-07-04T00:58:23.615Z,1014.96
2016-07-04T00:59:23.619Z,1014.95
2016-07-04T01:00:23.624Z,1014.9
2016-07-04T01:01:23.629Z,1014.92
2016-07-04T01:02:23.636Z,1014.94
2016-07-04T01:03:23.640Z,1014.88
2016-07-04T01:04:23.644Z,1014.9
2016-07-04T01:05:23.652Z,1014.9
2016-07-04T01:06:23.656Z,1014.86
2016-07-04T01:07:23.659Z,1014.85
2016-07-04T01:08:23.663Z,1014.86
2016-07-04T01:09:23.667Z,1014.88
2016-07-04T01:10:23.673Z,1014.83
2016-07-04T01:11:23.678Z,1014.85
2016-07-04T01:12:23.682Z,1014.83
2016-07-04T01:13:23.689Z,1014.84
2016-07-04T01:14:23.693Z,1014.89
2016-07-04T01:15:23.697Z,1014.86
2016-07-04T01:16:23.702Z,1014.88
2016-07-04T01:17:23.707Z,1014.82
2016-07-04T01:18:23.711Z,1014.85
2016-07-04T01:19:23.717Z,1014.85
2016-07-04T01:20:23.721Z,1014.87
2016-07-04T01:21:23.727Z,1014.86
2016-07-04T01:22:23.729Z,1014.88
2016-07-04T01:23:23.733Z,1014.82
2016-07-04T01:24:23.738Z,1014.82
2016-07-04T01:25:23.745Z,1014.8
2016-07-04T01:26:23.748Z,1014.8
2016-07-04T01:27:23.755Z,1014.85
2016-07-04T01:28:23.758Z,1014.84
2016-07-04T01:29:23.763Z,1014.79
2016-07-04T01:30:23.768Z,1014.82
2016-07-04T01:31:23.771Z,1014.8
2016-07-04T01:32:23.777Z,1014.79
2016-07-04T01:33:23.781Z,1014.79
2016-07-04T01:34:23.786Z,1014.77
2016-07-04T01:35:23.790Z,1014.74
2016-07-04T01:36:23.795Z,1014.75
2016-07-04T01:37:23.798Z,1014.72
2016-07-04T01:38:23.806Z,1014.72
2016-07-04T01:39:23.809Z,1014.73
2016-07-04T01:40:23.813Z,1014.69
2016-07-04T01:41:23.820Z,1014.68
2016-07-04T01:42:23.821Z,1014.68
2016-07-04T01:43:23.829Z,1014.66
2016-07-04T01:44:23.832Z,1014.62
2016-07-04T01:45:23.838Z,1014.67
2016-07-04T01:46:23.842Z,1014.64
2016-07-04T01:47:23.847Z,1014.66
2016-07-04T01:48:23.849Z,1014.65
2016-07-04T01:49:23.856Z,1014.63
2016-07-04T01:50:23.862Z,1014.68
2016-07-04T01:51:23.867Z,1014.7
2016-07-04T01:52:23.871Z,1014.68
2016-07-04T01:53:23.874Z,1014.7
2016-07-04T01:54:23.879Z,1014.72
2016-07-04T01:55:23.883Z,1014.68
2016-07-04T01:56:23.888Z,1014.69
2016-07-04T01:57:23.893Z,1014.66
2016-07-04T01:58:23.898Z,1014.67
2016-07-04T01:59:23.904Z,1014.69
2016-07-04T02:00:23.909Z,1014.67
2016-07-04T02:01:23.919Z,1014.66
2016-07-04T02:02:23.915Z,1014.67
2016-07-04T02:03:23.919Z,1014.6
2016-07-04T02:04:23.924Z,1014.63
2016-07-04T02:05:23.932Z,1014.62
2016-07-04T02:06:23.936Z,1014.62
2016-07-04T02:07:23.944Z,1014.64
2016-07-04T02:08:23.946Z,1014.57
2016-07-04T02:09:23.950Z,1014.62
2016-07-04T02:10:23.954Z,1014.6
2016-07-04T02:11:23.958Z,1014.61
2016-07-04T02:12:24.018Z,1014.61
2016-07-04T02:13:23.968Z,1014.61
2016-07-04T02:14:23.971Z,1014.68
2016-07-04T02:15:24.033Z,1014.65
2016-07-04T02:16:24.033Z,1014.63
2016-07-04T02:17:23.987Z,1014.62
2016-07-04T02:18:23.993Z,1014.59
2016-07-04T02:19:23.997Z,1014.54
2016-07-04T02:20:24.002Z,1014.6
2016-07-04T02:21:24.006Z,1014.56
2016-07-04T02:22:24.012Z,1014.56
2016-07-04T02:23:24.016Z,1014.61
2016-07-04T02:24:24.020Z,1014.59
2016-07-04T02:25:24.023Z,1014.63
2016-07-04T02:26:24.032Z,1014.57
2016-07-04T02:27:24.036Z,1014.6
2016-07-04T02:28:24.040Z,1014.57
2016-07-04T02:29:24.044Z,1014.58
2016-07-04T02:30:24.050Z,1014.58
2016-07-04T02:31:24.055Z,1014.56
2016-07-04T02:32:24.060Z,1014.56
2016-07-04T02:33:24.065Z,1014.55
2016-07-04T02:34:24.070Z,1014.6
2016-07-04T02:35:24.074Z,1014.54
2016-07-04T02:36:24.077Z,1014.58
2016-07-04T02:37:24.084Z,1014.58
2016-07-04T02:38:24.089Z,1014.56
2016-07-04T02:39:24.093Z,1014.59
2016-07-04T02:40:24.097Z,1014.58
2016-07-04T02:41:24.102Z,1014.54
2016-07-04T02:42:24.106Z,1014.55
2016-07-04T02:43:24.111Z,1014.56
2016-07-04T02:44:24.116Z,1014.58
2016-07-04T02:45:24.119Z,1014.56
2016-07-04T02:46:24.124Z,1014.57
2016-07-04T02:47:24.131Z,1014.56
2016-07-04T02:48:24.135Z,1014.57
2016-07-04T02:49:24.140Z,1014.6
2016-07-04T02:50:24.143Z,1014.63
2016-07-04T02:51:24.148Z,1014.61
2016-07-04T02:52:24.152Z,1014.63
2016-07-04T02:53:24.158Z,1014.6
2016-07-04T02:54:24.162Z,1014.6
2016-07-04T02:55:24.168Z,1014.61
2016-07-04T02:56:24.172Z,1014.61
2016-07-04T02:57:24.177Z,1014.6
2016-07-04T02:58:24.181Z,1014.6
2016-07-04T02:59:24.186Z,1014.55
2016-07-04T03:00:24.190Z,1014.61
2016-07-04T03:01:24.196Z,1014.55
2016-07-04T03:02:24.200Z,1014.59
2016-07-04T03:03:24.204Z,1014.56
2016-07-04T03:04:24.209Z,1014.58
2016-07-04T03:05:24.213Z,1014.58
2016-07-04T03:06:24.218Z,1014.61
2016-07-04T03:07:24.224Z,1014.53
2016-07-04T03:08:24.226Z,1014.57
2016-07-04T03:09:24.232Z,1014.57
2016-07-04T03:10:24.235Z,1014.58
2016-07-04T03:11:24.241Z,1014.6
2016-07-04T03:12:24.244Z,1014.58
2016-07-04T03:13:24.250Z,1014.62
2016-07-04T03:14:24.254Z,1014.58
2016-07-04T03:15:24.256Z,1014.59
2016-07-04T03:16:24.262Z,1014.62
2016-07-04T03:17:24.265Z,1014.61
2016-07-04T03:18:24.271Z,1014.61
2016-07-04T03:19:24.274Z,1014.62
2016-07-04T03:20:24.280Z,1014.58
2016-07-04T03:21:24.282Z,1014.59
2016-07-04T03:22:24.287Z,1014.62
2016-07-04T03:23:24.293Z,1014.58
2016-07-04T03:24:24.294Z,1014.61
2016-07-04T03:25:24.301Z,1014.6
2016-07-04T03:26:24.307Z,1014.59
2016-07-04T03:27:24.317Z,1014.6
2016-07-04T03:28:24.314Z,1014.63
2016-07-04T03:29:24.322Z,1014.65
2016-07-04T03:30:24.325Z,1014.65
2016-07-04T03:31:24.330Z,1014.67
2016-07-04T03:32:24.335Z,1014.68
2016-07-04T03:33:24.340Z,1014.67
2016-07-04T03:34:24.344Z,1014.65
2016-07-04T03:35:24.350Z,1014.68
2016-07-04T03:36:24.353Z,1014.69
2016-07-04T03:37:24.359Z,1014.67
2016-07-04T03:38:24.364Z,1014.68
2016-07-04T03:39:24.367Z,1014.7
2016-07-04T03:40:24.372Z,1014.69
2016-07-04T03:41:24.373Z,1014.73
2016-07-04T03:42:24.378Z,1014.7
2016-07-04T03:43:24.386Z,1014.65
2016-07-04T03:44:24.388Z,1014.71
2016-07-04T03:45:24.393Z,1014.71
2016-07-04T03:46:24.399Z,1014.72
2016-07-04T03:47:24.405Z,1014.71
2016-07-04T03:48:24.408Z,1014.69
2016-07-04T03:49:24.413Z,1014.71
2016-07-04T03:50:24.417Z,1014.72
2016-07-04T03:51:24.421Z,1014.7
2016-07-04T03:52:24.427Z,1014.73
2016-07-04T03:53:24.432Z,1014.71
2016-07-04T03:54:24.436Z,1014.7
2016-07-04T03:55:24.441Z,1014.69
2016-07-04T03:56:24.443Z,1014.71
2016-07-04T03:57:24.450Z,1014.69
2016-07-04T03:58:24.455Z,1014.72
2016-07-04T03:59:24.460Z,1014.73
2016-07-04T04:00:24.464Z,1014.76
2016-07-04T04:01:24.469Z,1014.73
2016-07-04T04:02:24.474Z,1014.75
2016-07-04T04:03:24.479Z,1014.75
2016-07-04T04:04:24.482Z,1014.76
2016-07-04T04:05:24.488Z,1014.77
2016-07-04T04:06:24.493Z,1014.74
2016-07-04T04:07:24.498Z,1014.78
2016-07-04T04:08:24.503Z,1014.7
2016-07-04T04:09:24.507Z,1014.76
2016-07-04T04:10:24.510Z,1014.77
2016-07-04T04:11:24.516Z,1014.72
2016-07-04T04:12:24.521Z,1014.73
2016-07-04T04:13:24.527Z,1014.74
2016-07-04T04:14:24.532Z,1014.72
2016-07-04T04:15:24.538Z,1014.73
2016-07-04T04:16:24.544Z,1014.74
2016-07-04T04:17:24.548Z,1014.71
2016-07-04T04:18:24.554Z,1014.74
2016-07-04T04:19:24.561Z,1014.76
2016-07-04T04:20:24.565Z,1014.77
2016-07-04T04:21:24.568Z,1014.77
2016-07-04T04:22:24.575Z,1014.79
2016-07-04T04:23:24.579Z,1014.81
2016-07-04T04:24:24.585Z,1014.84
2016-07-04T04:25:24.589Z,1014.83
2016-07-04T04:26:24.595Z,1014.83
2016-07-04T04:27:24.600Z,1014.83
2016-07-04T04:28:24.604Z,1014.82
2016-07-04T04:29:24.610Z,1014.83
2016-07-04T04:30:24.615Z,1014.78
2016-07-04T04:31:24.627Z,1014.8
2016-07-04T04:32:24.624Z,1014.76
2016-07-04T04:33:24.630Z,1014.75
2016-07-04T04:34:24.634Z,1014.75
2016-07-04T04:35:24.641Z,1014.73
2016-07-04T04:36:24.644Z,1014.73
2016-07-04T04:37:24.647Z,1014.75
2016-07-04T04:38:24.652Z,1014.77
2016-07-04T04:39:24.659Z,1014.78
2016-07-04T04:40:24.662Z,1014.78
2016-07-04T04:41:24.671Z,1014.81
2016-07-04T04:42:24.674Z,1014.79
2016-07-04T04:43:24.676Z,1014.79
2016-07-04T04:44:24.682Z,1014.79
2016-07-04T04:45:24.688Z,1014.79
2016-07-04T04:46:24.703Z,1014.81
2016-07-04T04:47:24.700Z,1014.78
2016-07-04T04:48:24.706Z,1014.79
2016-07-04T04:49:24.711Z,1014.85
2016-07-04T04:50:24.728Z,1014.84
2016-07-04T04:51:24.720Z,1014.86
2016-07-04T04:52:24.725Z,1014.94
2016-07-04T04:53:24.731Z,1015.15
2016-07-04T04:54:24.735Z,1015.29
2016-07-04T04:55:24.741Z,1015.37
2016-07-04T04:56:24.745Z,1015.38
2016-07-04T04:57:24.752Z,1015.41
2016-07-04T04:58:24.757Z,1015.47
2016-07-04T04:59:24.762Z,1015.46
2016-07-04T05:00:24.766Z,1015.56
2016-07-04T05:01:24.772Z,1015.62
2016-07-04T05:02:24.776Z,1015.66
2016-07-04T05:03:24.782Z,1015.7
2016-07-04T05:04:24.787Z,1015.74
2016-07-04T05:05:24.793Z,1015.75
2016-07-04T05:06:24.799Z,1015.78
2016-07-04T05:07:24.804Z,1015.81
2016-07-04T05:08:24.811Z,1015.75
2016-07-04T05:09:24.884Z,1015.69
2016-07-04T05:10:24.836Z,1015.57
2016-07-04T05:11:24.829Z,1015.09
2016-07-04T05:12:24.834Z,1015.09
2016-07-04T05:13:24.841Z,1015.35
2016-07-04T05:14:24.852Z,1015.26
2016-07-04T05:15:24.852Z,1015.49
2016-07-04T05:16:24.874Z,1015.08
2016-07-04T05:17:24.867Z,1015.09
2016-07-04T05:18:24.872Z,1015.49
2016-07-04T05:19:24.880Z,1015.71
2016-07-04T05:20:24.884Z,1015.7
2016-07-04T05:21:24.891Z,1015.76
2016-07-04T05:22:24.897Z,1015.75
2016-07-04T05:23:24.904Z,1015.79
2016-07-04T05:24:24.910Z,1015.81
2016-07-04T05:25:24.916Z,1015.87
2016-07-04T05:26:24.923Z,1015.88
2016-07-04T05:27:24.927Z,1015.49
2016-07-04T05:28:24.934Z,1015.94
2016-07-04T05:29:24.942Z,1016
2016-07-04T05:30:24.950Z,1016.02
2016-07-04T05:31:24.955Z,1015.88
2016-07-04T05:32:24.963Z,1015.91
2016-07-04T05:33:24.972Z,1015.52
2016-07-04T05:34:24.976Z,1015.64
2016-07-04T05:35:24.982Z,1016.16
2016-07-04T05:36:24.988Z,1016.26
2016-07-04T05:37:25.001Z,1016.21
2016-07-04T05:38:25.002Z,1015.95
2016-07-04T05:39:25.013Z,1015.11
2016-07-04T05:40:25.022Z,1015.08
2016-07-04T05:41:25.028Z,1014.99
2016-07-04T05:42:25.034Z,1014.96
2016-07-04T05:43:25.043Z,1015.05
2016-07-04T05:44:25.048Z,1015.04
2016-07-04T05:45:25.052Z,1016.44
2016-07-04T05:46:25.059Z,1016.48
2016-07-04T05:47:25.074Z,1016.63
2016-07-04T05:48:25.073Z,1016.66
2016-07-04T05:49:25.083Z,1016.57
2016-07-04T05:50:25.089Z,1015.97
2016-07-04T05:51:25.095Z,1016.17
2016-07-04T05:52:25.104Z,1016.77
2016-07-04T05:53:25.110Z,1015.73
2016-07-04T05:54:25.119Z,1016.9
2016-07-04T05:55:25.125Z,1016.88
2016-07-04T05:56:25.135Z,1016.93
2016-07-04T05:57:25.144Z,1016.88
2016-07-04T05:58:25.150Z,1016.87
2016-07-04T05:59:25.157Z,1016.85
2016-07-04T06:00:25.168Z,1016.79
2016-07-04T06:01:25.175Z,1016.82
2016-07-04T06:02:25.186Z,1016.9
2016-07-04T06:03:25.192Z,1016.95
2016-07-04T06:04:25.202Z,1016.83
2016-07-04T06:05:25.209Z,1016.82
2016-07-04T06:06:25.217Z,1016.8
2016-07-04T06:07:25.222Z,1016.83
2016-07-04T06:08:25.235Z,1016.95
2016-07-04T06:09:25.242Z,1016.94
2016-07-04T06:10:25.253Z,1016.9
2016-07-04T06:11:25.265Z,1016.95
2016-07-04T06:12:25.265Z,1016.92
2016-07-04T06:13:25.276Z,1016.93
2016-07-04T06:14:25.283Z,1016.91
2016-07-04T06:15:25.298Z,1016.87
2016-07-04T06:16:25.310Z,1016.8
2016-07-04T06:17:25.313Z,1016.76
2016-07-04T06:18:25.319Z,1016.71
2016-07-04T06:19:25.327Z,1016.61
2016-07-04T06:20:25.336Z,1016.53
2016-07-04T06:21:25.348Z,1016.53
2016-07-04T06:22:25.356Z,1016.48
2016-07-04T06:23:25.364Z,1016.47
2016-07-04T06:24:25.376Z,1016.42
2016-07-04T06:25:25.381Z,1016.37
2016-07-04T06:26:25.392Z,1015.37
2016-07-04T06:27:25.401Z,1015.34
2016-07-04T06:28:25.410Z,1015.3
2016-07-04T06:29:25.418Z,1015.29
2016-07-04T06:30:25.426Z,1015.3
2016-07-04T06:31:25.434Z,1015.33
2016-07-04T06:32:25.443Z,1015.76
2016-07-04T06:33:25.449Z,1015.24
2016-07-04T06:34:25.456Z,1015.21
2016-07-04T06:35:25.465Z,1015.24
2016-07-04T06:36:25.472Z,1015.34
2016-07-04T06:37:25.482Z,1015.25
2016-07-04T06:38:25.484Z,1015.21
2016-07-04T06:39:25.495Z,1015.43
2016-07-04T06:40:25.502Z,1015.33
2016-07-04T06:41:25.509Z,1015.16
2016-07-04T06:42:25.516Z,1015.34
2016-07-04T06:43:25.524Z,1015.2
2016-07-04T06:44:25.530Z,1015.27
2016-07-04T06:45:25.537Z,1015.94
2016-07-04T06:46:25.543Z,1015.29
2016-07-04T06:47:25.552Z,1015.3
2016-07-04T06:48:25.559Z,1015.62
2016-07-04T06:49:25.568Z,1015.16
2016-07-04T06:50:25.571Z,1016.08
2016-07-04T06:51:25.580Z,1015.86
2016-07-04T06:52:25.588Z,1015.14
2016-07-04T06:53:25.597Z,1015.08
2016-07-04T06:54:25.604Z,1015.08
2016-07-04T06:55:25.611Z,1015.03
2016-07-04T06:56:25.620Z,1015.07
2016-07-04T06:57:25.873Z,1015.41
2016-07-04T06:58:25.634Z,1015.11
2016-07-04T06:59:25.644Z,1015.12
2016-07-04T07:00:25.649Z,1015.17
2016-07-04T07:01:25.657Z,1015.37
2016-07-04T07:02:25.663Z,1015.33
2016-07-04T07:03:25.671Z,1015.46
2016-07-04T07:04:25.682Z,1015.78
2016-07-04T07:05:25.704Z,1015.28
2016-07-04T07:06:25.695Z,1015.62
2016-07-04T07:07:25.701Z,1015.6
2016-07-04T07:08:25.712Z,1015.98
2016-07-04T07:09:25.721Z,1015.99
2016-07-04T07:10:25.726Z,1015.77
2016-07-04T07:11:25.737Z,1015.3
2016-07-04T07:12:25.745Z,1015.62
2016-07-04T07:13:25.752Z,1015.75
2016-07-04T07:14:25.761Z,1015.93
2016-07-04T07:15:25.772Z,1015.95
2016-07-04T07:16:25.782Z,1015.83
2016-07-04T07:17:25.787Z,1015.75
2016-07-04T07:18:25.798Z,1015.25
2016-07-04T07:19:25.806Z,1015.8
2016-07-04T07:20:25.815Z,1015.87
2016-07-04T07:21:25.823Z,1015.74
2016-07-04T07:22:26.185Z,1015.92
2016-07-04T07:23:25.843Z,1015.84
2016-07-04T07:24:25.853Z,1015.48
2016-07-04T07:25:25.862Z,1015.16
2016-07-04T07:26:25.870Z,1015.93
2016-07-04T07:27:25.879Z,1015.97
2016-07-04T07:28:25.887Z,1015.94
2016-07-04T07:29:25.895Z,1015.77
2016-07-04T07:30:25.906Z,1015.48
2016-07-04T07:31:25.914Z,1015.95
2016-07-04T07:32:25.923Z,1015.13
2016-07-04T07:33:25.933Z,1015.03
2016-07-04T07:34:25.942Z,1015.03
2016-07-04T07:35:25.951Z,1015.04
2016-07-04T07:36:25.958Z,1015.89
2016-07-04T07:37:25.985Z,1015.88
2016-07-04T07:38:25.977Z,1015.96
2016-07-04T07:39:25.985Z,1015.94
2016-07-04T07:40:25.994Z,1015.9
2016-07-04T07:41:26.002Z,1015.95
2016-07-04T07:42:26.011Z,1015.93
2016-07-04T07:43:26.019Z,1015.92
2016-07-04T07:44:26.029Z,1015.24
2016-07-04T07:45:26.037Z,1015.01
2016-07-04T07:46:26.043Z,1014.96
2016-07-04T07:47:26.054Z,1015.24
2016-07-04T07:48:26.061Z,1015.04
2016-07-04T07:49:26.070Z,1015.04
2016-07-04T07:50:26.076Z,1014.98
2016-07-04T07:51:26.131Z,1014.96
2016-07-04T07:52:26.316Z,1014.99
2016-07-04T07:53:26.115Z,1014.95
2016-07-04T07:54:26.108Z,1014.93
2016-07-04T07:55:26.117Z,1014.94
2016-07-04T07:56:26.125Z,1014.98
2016-07-04T07:57:26.132Z,1015.03
2016-07-04T07:58:26.138Z,1015
2016-07-04T07:59:26.148Z,1015
2016-07-04T08:00:26.151Z,1015.04
2016-07-04T08:01:26.159Z,1014.99
2016-07-04T08:02:26.163Z,1014.99
2016-07-04T08:03:26.175Z,1015.09
2016-07-04T08:04:26.179Z,1015.02
2016-07-04T08:05:26.204Z,1015.04
2016-07-04T08:06:26.196Z,1015.04
2016-07-04T08:07:26.203Z,1015.04
2016-07-04T08:08:26.210Z,1015.01
2016-07-04T08:09:26.217Z,1015.02
2016-07-04T08:10:26.230Z,1015
2016-07-04T08:11:26.230Z,1014.98
2016-07-04T08:12:26.243Z,1015
2016-07-04T08:13:26.245Z,1015.03
2016-07-04T08:14:26.251Z,1014.98
2016-07-04T08:15:26.257Z,1014.96
2016-07-04T08:16:26.264Z,1014.91
2016-07-04T08:17:26.271Z,1014.94
2016-07-04T08:18:26.286Z,1014.92
2016-07-04T08:19:26.285Z,1014.95
2016-07-04T08:20:26.299Z,1014.94
2016-07-04T08:21:26.297Z,1014.91
2016-07-04T08:22:26.302Z,1015
2016-07-04T08:23:26.310Z,1014.96
2016-07-04T08:24:26.321Z,1015.01
2016-07-04T08:25:26.331Z,1015.02
2016-07-04T08:26:26.334Z,1014.94
2016-07-04T08:27:26.341Z,1014.95
2016-07-04T08:28:26.348Z,1014.94
2016-07-04T08:29:26.354Z,1014.93
2016-07-04T08:30:26.359Z,1014.96
2016-07-04T08:31:26.366Z,1014.91
2016-07-04T08:32:26.376Z,1014.91
2016-07-04T08:33:26.378Z,1014.88
2016-07-04T08:34:26.388Z,1014.9
2016-07-04T08:35:26.395Z,1014.9
2016-07-04T08:36:26.402Z,1014.86
2016-07-04T08:37:26.408Z,1014.85
2016-07-04T08:38:26.415Z,1014.83
2016-07-04T08:39:26.421Z,1014.82
2016-07-04T08:40:26.429Z,1014.81
2016-07-04T08:41:26.434Z,1014.81
2016-07-04T08:42:26.442Z,1014.82
2016-07-04T08:43:26.449Z,1014.82
2016-07-04T08:44:26.454Z,1014.87
2016-07-04T08:45:30.985Z,1014.94
2016-07-04T08:46:26.468Z,1014.89
2016-07-04T08:47:26.477Z,1014.91
2016-07-04T08:48:26.481Z,1014.86
2016-07-04T08:49:42.519Z,1014.85
2016-07-04T08:50:26.488Z,1014.85
2016-07-04T08:51:42.300Z,1014.85
2016-07-04T08:52:27.898Z,1014.92
2016-07-04T08:53:26.514Z,1014.89
2016-07-04T08:54:26.522Z,1014.86
2016-07-04T08:55:26.525Z,1014.79
2016-07-04T08:56:26.538Z,1014.79
2016-07-04T08:57:26.542Z,1014.83
2016-07-04T08:58:26.545Z,1014.83
2016-07-04T08:59:26.552Z,1014.81
2016-07-04T09:25:58.385Z,1014.74
2016-07-04T09:26:58.394Z,1014.72
2016-07-04T09:27:58.397Z,1014.68
2016-07-04T09:28:58.408Z,1014.72
2016-07-04T09:29:58.414Z,1014.68
2016-07-04T09:30:58.421Z,1014.74
2016-07-04T09:31:58.428Z,1014.7
2016-07-04T09:32:58.430Z,1014.72
2016-07-04T09:33:58.437Z,1014.69
2016-07-04T09:34:58.444Z,1014.73
2016-07-04T09:35:58.450Z,1014.7
2016-07-04T09:36:58.455Z,1014.67
2016-07-04T09:37:58.462Z,1014.61
2016-07-04T09:38:58.470Z,1014.61
2016-07-04T09:39:58.479Z,1014.6
2016-07-04T09:40:58.484Z,1014.56
2016-07-04T09:41:58.490Z,1014.59
2016-07-04T09:42:58.494Z,1014.55
2016-07-04T09:43:58.512Z,1014.55
2016-07-04T09:44:58.507Z,1014.6
2016-07-04T09:45:58.514Z,1014.54
2016-07-04T09:46:58.519Z,1014.58
2016-07-04T09:47:58.528Z,1014.55
2016-07-04T09:48:58.534Z,1014.55
2016-07-04T09:49:58.542Z,1014.55
2016-07-04T09:50:58.545Z,1014.48
2016-07-04T09:51:58.552Z,1014.5
2016-07-04T09:52:58.559Z,1014.46
2016-07-04T09:53:58.567Z,1014.47
2016-07-04T09:54:58.573Z,1014.5
2016-07-04T09:55:58.579Z,1014.49
2016-07-04T09:56:58.586Z,1014.47
2016-07-04T09:57:58.591Z,1014.48
2016-07-04T09:58:58.598Z,1014.47
2016-07-04T09:59:58.607Z,1014.47
2016-07-04T10:00:58.611Z,1014.53
2016-07-04T10:01:58.618Z,1014.48
2016-07-04T10:02:58.627Z,1014.5
2016-07-04T10:03:58.633Z,1014.47
2016-07-04T10:04:58.639Z,1014.45
2016-07-04T10:05:58.646Z,1014.39
2016-07-04T10:06:58.652Z,1014.44
2016-07-04T10:07:58.658Z,1014.43
2016-07-04T10:08:58.665Z,1014.43
2016-07-04T10:09:58.670Z,1014.49
2016-07-04T10:10:58.679Z,1014.51
2016-07-04T10:11:58.687Z,1014.5
2016-07-04T10:12:58.691Z,1014.48
2016-07-04T10:13:58.695Z,1014.42
2016-07-04T10:14:58.705Z,1014.44
2016-07-04T10:15:58.707Z,1014.43
2016-07-04T10:16:58.715Z,1014.38
2016-07-04T10:17:58.719Z,1014.42
2016-07-04T10:18:58.727Z,1014.37
2016-07-04T10:19:58.736Z,1014.39
2016-07-04T10:20:58.742Z,1014.35
2016-07-04T10:21:58.746Z,1014.4
2016-07-04T10:22:58.754Z,1014.4
2016-07-04T10:23:58.761Z,1014.39
2016-07-04T10:24:58.767Z,1014.36
2016-07-04T10:25:58.775Z,1014.32
2016-07-04T10:26:58.777Z,1014.32
2016-07-04T10:27:58.784Z,1014.34
2016-07-04T10:28:58.792Z,1014.31
2016-07-04T10:29:58.800Z,1014.34
2016-07-04T10:30:58.803Z,1014.36
2016-07-04T10:31:58.812Z,1014.28
2016-07-04T10:32:58.818Z,1014.33
2016-07-04T10:33:58.823Z,1014.34
2016-07-04T10:34:58.827Z,1014.33
2016-07-04T10:35:58.837Z,1014.33
2016-07-04T10:36:58.844Z,1014.31
2016-07-04T10:37:58.849Z,1014.31
2016-07-04T10:38:58.857Z,1014.26
2016-07-04T10:39:58.865Z,1014.23
2016-07-04T10:40:58.870Z,1014.28
2016-07-04T10:41:58.875Z,1014.28
2016-07-04T10:42:58.883Z,1014.23
2016-07-04T10:43:58.890Z,1014.2
2016-07-04T10:44:58.894Z,1014.22
2016-07-04T10:45:58.900Z,1014.19
2016-07-04T10:46:58.911Z,1014.19
2016-07-04T10:47:58.914Z,1014.2
2016-07-04T10:48:58.919Z,1014.15
2016-07-04T10:49:58.926Z,1014.17
2016-07-04T10:50:58.934Z,1014.15
2016-07-04T10:51:58.937Z,1014.11
2016-07-04T10:52:58.946Z,1014.12
2016-07-04T10:53:58.951Z,1014.1
2016-07-04T10:54:58.958Z,1014.08
2016-07-04T10:55:58.964Z,1014.1
2016-07-04T10:56:58.970Z,1014.09
2016-07-04T10:57:58.973Z,1014.09
2016-07-04T10:58:58.981Z,1014.06
2016-07-04T10:59:58.987Z,1014.03
2016-07-04T11:00:58.994Z,1014.06
2016-07-04T11:01:59.002Z,1014.03
2016-07-04T11:02:59.008Z,1014
2016-07-04T11:03:59.013Z,1013.98
2016-07-04T11:04:59.020Z,1013.99
2016-07-04T11:05:59.027Z,1013.98
2016-07-04T11:06:59.032Z,1013.93
2016-07-04T11:07:59.035Z,1013.94
2016-07-04T11:08:59.046Z,1013.97
2016-07-04T11:09:59.048Z,1013.94
2016-07-04T11:10:59.053Z,1013.92
2016-07-04T11:11:59.061Z,1013.92
2016-07-04T11:12:59.070Z,1013.91
2016-07-04T11:13:59.077Z,1013.94
2016-07-04T11:14:59.081Z,1013.9
2016-07-04T11:15:59.087Z,1013.93
2016-07-04T11:16:59.096Z,1013.91
2016-07-04T11:17:59.101Z,1013.87
2016-07-04T11:18:59.107Z,1013.93
2016-07-04T11:19:59.114Z,1013.89
2016-07-04T11:20:59.123Z,1013.92
2016-07-04T11:21:59.125Z,1013.88
2016-07-04T11:22:59.130Z,1013.92
2016-07-04T11:23:59.140Z,1013.95
2016-07-04T11:24:59.143Z,1013.87
2016-07-04T11:25:59.300Z,1013.98
2016-07-04T11:26:59.166Z,1013.93
2016-07-04T11:27:59.162Z,1013.95
2016-07-04T11:28:59.165Z,1013.95
2016-07-04T11:29:59.174Z,1013.96
2016-07-04T11:30:59.181Z,1013.95
2016-07-04T11:31:59.188Z,1013.91
2016-07-04T11:32:59.192Z,1013.93
2016-07-04T11:33:59.197Z,1013.91
2016-07-04T11:34:59.206Z,1013.92
2016-07-04T11:35:59.214Z,1013.94
2016-07-04T11:36:59.220Z,1013.89
2016-07-04T11:37:59.222Z,1013.86
2016-07-04T11:38:59.230Z,1013.9
2016-07-04T11:39:59.235Z,1013.9
2016-07-04T11:40:59.246Z,1013.88
2016-07-04T11:41:59.248Z,1013.88
2016-07-04T11:42:59.254Z,1013.87
2016-07-04T11:43:59.261Z,1013.84
2016-07-04T11:44:59.264Z,1013.83
2016-07-04T11:45:59.269Z,1013.83
2016-07-04T11:46:59.272Z,1013.81
2016-07-04T11:47:59.286Z,1013.81
2016-07-04T11:48:59.290Z,1013.8
2016-07-04T11:49:59.298Z,1013.81
2016-07-04T11:50:59.302Z,1013.86
2016-07-04T11:51:59.308Z,1013.81
2016-07-04T11:52:59.318Z,1013.79
2016-07-04T11:53:59.324Z,1013.77
2016-07-04T11:54:59.329Z,1013.74
2016-07-04T11:55:59.335Z,1013.74
2016-07-04T11:56:59.342Z,1013.75
2016-07-04T11:57:59.348Z,1013.75
2016-07-04T11:58:59.355Z,1013.74
2016-07-04T11:59:59.363Z,1013.76
2016-07-04T12:00:59.367Z,1013.75
2016-07-04T12:01:59.373Z,1013.7
2016-07-04T12:02:59.379Z,1013.73
2016-07-04T12:03:59.386Z,1013.68
2016-07-04T12:04:59.392Z,1013.7
2016-07-04T12:05:59.396Z,1013.67
2016-07-04T12:06:59.404Z,1013.68
2016-07-04T12:07:59.410Z,1013.64
2016-07-04T12:08:59.414Z,1013.64
2016-07-04T12:09:59.422Z,1013.61
2016-07-04T12:10:59.430Z,1013.61
2016-07-04T12:11:59.437Z,1013.62
2016-07-04T12:12:59.442Z,1013.63
2016-07-04T12:13:59.447Z,1013.61
2016-07-04T12:14:59.452Z,1013.62
2016-07-04T12:15:59.460Z,1013.63
2016-07-04T12:16:59.466Z,1013.59
2016-07-04T12:17:59.472Z,1013.64
2016-07-04T12:18:59.480Z,1013.59
2016-07-04T12:19:59.485Z,1013.66
2016-07-04T12:20:59.489Z,1013.62
2016-07-04T12:21:59.498Z,1013.66
2016-07-04T12:22:59.506Z,1013.6
2016-07-04T12:23:59.512Z,1013.65
2016-07-04T12:24:59.516Z,1013.57
2016-07-04T12:25:59.527Z,1013.57
2016-07-04T12:26:59.530Z,1013.6
2016-07-04T12:27:59.537Z,1013.55
2016-07-04T12:28:59.544Z,1013.62
2016-07-04T12:29:59.550Z,1013.62
2016-07-04T12:30:59.556Z,1013.59
2016-07-04T12:31:59.562Z,1013.55
2016-07-04T12:32:59.567Z,1013.59
2016-07-04T12:33:59.574Z,1013.6